Weather observations for the past three days for
Canby Airfield
Imperial (Metric)
Date Time (cdt) Wind (mph) Vis. (mi.) Weather Sky Cond. Temperature (ºF) Relative Humidity Wind Chill (°F) Heat Index (°F) Pressure Precipitation (in)
Air Dwpt 6 hour altimeter (in) sea level (mb) 1 hr 3 hr 6 hr
Max. Min.
03 22:55 SW 8 10.00 Fair CLR 81.5 68.2 64% 84 29.78 0.0
03 22:35 SW 7 10.00 Fair CLR 81.7 68.2 64% 85 29.78 0.0
03 22:15 SW 6 10.00 Fair CLR 81.7 68.4 64% 85 29.78 0.0
03 21:55 S 5 10.00 Fair CLR 81.7 68 63% 85 29.77 0.0
03 21:35 S 3 10.00 Fair CLR 81.7 67.6 63% 84 29.76 0.0
03 21:15 SW 5 10.00 Fair CLR 81 67.6 64% 84 29.76 0.0
03 20:55 S 3 10.00 Fair CLR 81.5 67.1 62% 84 29.75 0.0
03 20:35 Calm 10.00 Fair CLR 81.7 66.4 60% 84 29.75 0.0
03 20:15 S 3 10.00 Fair CLR 83.5 65.7 55% 86 29.75 0.0
03 19:55 Calm 10.00 Fair CLR 84.2 64.6 52% 86 29.74 0.0
03 19:35 SE 3 10.00 Fair CLR 86.5 64.2 47% 88 29.74 0.0
03 19:15 SW 3 10.00 Fair CLR 89.2 62.8 41% 90 29.74 0.0
03 18:55 SW 6 10.00 Fair CLR 91 62.8 96.3 88.3 39% 92 29.74 0.0
03 18:35 SW 8 10.00 Fair CLR 92.7 64.6 40% 95 29.74 0.0
03 18:15 S 9 10.00 Fair CLR 93.7 66.4 41% 97 29.73 0.0
03 17:55 SW 8 10.00 Fair CLR 94.6 65.8 39% 98 29.72 0.0
03 17:35 SW 10 10.00 Fair CLR 95 65.5 38% 98 29.72 0.0
03 17:15 SW 9 10.00 Fair CLR 95.5 66.6 39% 99 29.71 0.0
03 16:55 S 9 10.00 Fair CLR 95.9 67.5 39% 100 29.71 0.0
03 16:35 S 9 10.00 Fair CLR 96.1 65.7 37% 99 29.7 0.0
03 16:15 SW 7 10.00 Fair CLR 96.1 65.8 37% 99 29.7 0.0
03 15:55 SW 7 10.00 Fair CLR 95.9 66.6 38% 100 29.7 0.0
03 15:35 S 6 10.00 Fair CLR 95.9 66 38% 99 29.7 0.0
03 15:15 S 8 10.00 Fair CLR 94.8 66.9 40% 99 29.71 0.0
03 14:55 S 10 G 16 10.00 Fair CLR 94.6 65.8 39% 98 29.72 0.0
03 14:35 S 8 10.00 Fair CLR 93.4 67.3 42% 97 29.72 0.0
03 14:15 SE 8 10.00 Fair CLR 92.1 66.6 43% 95 29.72 0.0
03 13:55 SE 6 10.00 Thunderstorm in Vicinity CLR 90.9 67.1 46% 94 29.71 0.0
03 13:35 SE 8 10.00 Fair CLR 89.8 68.5 50% 94 29.73 0.0
03 13:15 SE 9 10.00 Fair CLR 88.9 67.5 49% 92 29.74 0.0
03 12:55 S 8 10.00 Fair CLR 88.3 67.8 88.3 69.1 51% 92 29.74 0.0
03 12:35 SE 7 10.00 Fair CLR 87.8 67.8 52% 91 29.76 0.0
03 12:15 S 6 10.00 Thunderstorm CLR 85.8 67.3 54% 89 29.77 0.0
03 11:55 Calm 10.00 Fair CLR 84.6 67.1 56% 87 29.77 0.0
03 11:35 SW 6 10.00 Fair CLR 84.2 66.7 56% 87 29.78 0.0
03 11:15 Calm 10.00 Fair CLR 82.6 68.9 63% 86 29.76 0.0
03 10:55 E 3 10.00 Fair CLR 80.6 70 70% 84 29.76 0.0
03 10:35 SE 3 10.00 Fair CLR 80.2 69.1 69% 83 29.76 0.0
03 10:15 Calm 10.00 Fair CLR 78.6 68.7 72% 81 29.77 0.0
03 09:55 SE 5 10.00 Fair CLR 75.7 68.5 78% 77 29.77 0.0
03 09:35 SE 6 10.00 Fair CLR 74.3 68 81% 29.77 0.0
03 09:15 SE 8 10.00 Fair CLR 73.4 68.5 85% 29.78 0.0
03 08:55 SE 8 10.00 Fair CLR 70.7 69.8 97% 29.77 0.0
03 08:35 SE 6 7.00 Partly Cloudy SCT001 70.3 69.6 98% 29.78 0.0
03 08:15 SE 5 1.25 Fog/Mist OVC001 69.8 69.1 98% 29.78 0.0
03 07:55 Calm 0.15 Fog OVC001 69.8 68.9 97% 29.78 0.0
03 07:35 Calm 0.15 Fog OVC001 69.3 68.7 98% 29.78 0.0
03 07:15 SE 3 0.15 Fog OVC001 69.4 68.9 98% 29.78 0.0
03 06:55 SE 3 0.15 Fog OVC001 69.1 68.4 71.6 68 98% 29.78 0.0
03 06:35 Calm 0.25 Fog OVC001 69.1 68.2 97% 29.78 0.0
03 06:15 Calm 0.50 Fog OVC001 69.1 68.2 97% 29.78 0.0
03 05:55 Calm 3.00 Fog/Mist OVC003 69.1 68.2 97% 29.78 0.0
03 05:35 Calm 4.00 Fog/Mist OVC003 68.7 67.8 97% 29.78 0.0
03 05:15 Calm 3.00 Fog/Mist OVC003 68.5 67.5 96% 29.78 0.0
03 04:55 Calm 4.00 Fog/Mist BKN003 68.2 67.1 96% 29.78 0.0
03 04:35 Calm 4.00 Fog/Mist SCT003 68.7 67.3 95% 29.78 0.0
03 04:15 Calm 7.00 Fair CLR 69.3 68 96% 29.79 0.0
03 03:55 SE 3 7.00 Fair CLR 69.8 68.2 95% 29.8 0.0
03 03:35 SE 3 7.00 Fair CLR 70 68.4 95% 29.8 0.0
03 03:15 E 3 10.00 Fair CLR 70.5 68.9 95% 29.8 0.0
03 02:55 SE 7 10.00 Fair CLR 70.3 68.5 94% 29.8 0.0
03 02:35 SE 5 10.00 Fair CLR 70.7 69.1 95% 29.8 0.0
03 02:15 SE 7 10.00 Fair CLR 70.3 68.9 95% 29.81 0.0
03 01:55 S 3 10.00 Fair CLR 70 68.2 94% 29.82 0.0
03 01:35 SE 3 10.00 Fair CLR 70.7 68.7 93% 29.83 0.0
03 01:15 Calm 10.00 Fair CLR 71.6 69.3 92% 29.83 0.0
03 00:55 SE 3 10.00 Fair CLR 71.4 69.6 83.3 68.9 94% 29.83 0.0
03 00:35 SE 3 10.00 Fair CLR 70.7 68.9 94% 29.83 0.0
03 00:15 SE 6 10.00 Fair CLR 69.8 68.2 95% 29.84 0.0
02 23:55 SE 3 10.00 Fair CLR 69.4 68 95% 29.84 0.0
02 23:35 Calm 10.00 Fair CLR 69.6 67.5 93% 29.85 0.0
02 23:15 Calm 10.00 Fair CLR 70.3 68.2 93% 29.85 0.0
02 22:55 Calm 7.00 Fair CLR 71.4 68.9 92% 29.85 0.0
02 22:35 Calm 10.00 Fair CLR 70.7 68 91% 29.85 0.0
02 22:15 Calm 10.00 Fair CLR 72.1 68.9 90% 29.85 0.0
02 21:55 Calm 10.00 Fair CLR 73.4 69.3 87% 29.85 0.0
02 21:35 Calm 10.00 Fair CLR 73.4 69.3 87% 29.85 0.0
02 21:15 Calm 10.00 Fair CLR 73.8 69.4 86% 29.85 0.0
02 20:55 NE 5 10.00 Fair CLR 74.3 69.8 86% 29.85 0.0
02 20:35 NE 6 10.00 Fair CLR 75.4 70 83% 76 29.84 0.0
02 20:15 NE 6 7.00 Fair CLR 76.3 70.2 81% 77 29.83 0.0
02 19:55 E 6 10.00 Fair CLR 78.1 70.2 77% 80 29.84 0.0
02 19:35 E 7 10.00 Fair CLR 80.2 70 71% 83 29.83 0.0
02 19:15 E 7 10.00 Fair CLR 82.2 69.6 66% 86 29.83 0.0
02 18:55 E 9 10.00 Fair CLR 83.3 69.3 86.5 81.3 63% 87 29.83 0.0
02 18:35 E 12 10.00 Fair CLR 84.2 69.1 61% 88 29.83 0.0
02 18:15 E 9 10.00 Fair CLR 85.1 68.9 58% 89 29.83 0.0
02 17:55 E 9 10.00 Fair CLR 85.5 68.7 57% 89 29.84 0.0
02 17:35 E 9 10.00 Fair CLR 86 68.2 55% 90 29.83 0.0
02 17:15 NE 9 10.00 Fair CLR 86.2 67.8 54% 89 29.83 0.0
02 16:55 E 9 10.00 Fair CLR 86.4 67.8 54% 90 29.84 0.0
02 16:35 E 8 10.00 Fair CLR 86.2 67.5 54% 89 29.84 0.0
02 16:15 NE 9 10.00 Fair CLR 86.2 67.8 54% 89 29.85 0.0
02 15:55 E 9 10.00 Fair CLR 86 67.5 54% 89 29.85 0.0
02 15:35 NE 8 10.00 Fair CLR 85.6 66.7 53% 88 29.86 0.0
02 15:15 NE 9 10.00 Fair CLR 85.8 67.1 54% 89 29.86 0.0
02 14:55 E 8 10.00 Fair CLR 85.5 66.9 54% 88 29.87 0.0
02 14:35 E 7 10.00 Fair CLR 84.4 66.9 56% 87 29.88 0.0
02 14:15 E 7 10.00 Fair CLR 84 66.4 55% 86 29.88 0.0
02 13:55 E 8 10.00 Fair CLR 83.5 66 56% 86 29.89 0.0
02 13:35 E 9 10.00 Fair CLR 82.9 65.7 56% 85 29.89 0.0
02 13:15 E 8 10.00 Fair CLR 82 65.7 58% 84 29.89 0.0
02 12:55 E 9 10.00 Fair CLR 81 65.7 81 60.3 60% 83 29.9 0.0
02 12:35 E 8 10.00 Fair CLR 80.8 65.5 60% 83 29.91 0.0
02 12:15 E 5 10.00 Fair CLR 79.9 65.3 61% 82 29.91 0.0
02 11:55 SE 6 10.00 Fair CLR 78.8 64.9 63% 81 29.92 0.0
02 11:35 E 5 10.00 Fair CLR 78.3 64.4 63% 80 29.91 0.0
02 11:15 E 5 10.00 Fair CLR 77.9 64.4 63% 80 29.91 0.0
02 10:55 NE 5 10.00 Fair CLR 75.6 63.9 67% 77 29.91 0.0
02 10:35 NE 5 10.00 Fair CLR 74.3 63.9 70% 29.91 0.0
02 10:15 N 5 10.00 Fair CLR 73.4 64.2 73% 29.92 0.0
02 09:55 Calm 10.00 Fair CLR 71.6 63.3 75% 29.92 0.0
02 09:35 Calm 10.00 Fair CLR 70.3 63.1 78% 29.93 0.0
02 09:15 N 3 10.00 Fair CLR 68.4 63.1 84% 29.93 0.0
02 08:55 Calm 10.00 Fair CLR 67.1 62.4 85% 29.93 0.0
02 08:35 Calm 10.00 Fair CLR 64.9 62.6 92% 29.94 0.0
02 08:15 W 5 10.00 Partly Cloudy SCT065 63.7 62.2 95% 29.95 0.0
02 07:55 W 7 10.00 Partly Cloudy SCT065 62.6 61.7 97% 29.96 0.0
02 07:35 NW 5 10.00 Fair CLR 61.9 61.2 98% 29.93 0.0
02 07:15 Calm 7.00 Fair CLR 61.2 60.4 98% 29.92 0.0
02 06:55 Calm 7.00 Fair CLR 60.3 59.4 65.5 59.9 97% 29.92 0.0 0.01
02 06:35 W 3 10.00 Fair CLR 60.1 59.2 97% 29.92 0.0
02 06:15 NW 3 10.00 Fair CLR 60.1 58.8 96% 29.92 0.0
02 05:55 W 3 10.00 Fair CLR 59.9 59 97% 29.92 0.0
02 05:35 NW 3 10.00 Fair CLR 60.6 59.2 95% 29.91 0.0
02 05:15 Calm 10.00 Fair CLR 61 59.7 96% 29.92 0.0
02 04:55 Calm 10.00 Partly Cloudy SCT080 61.7 60.1 94% 29.93 0.0 0.01
02 04:35 W 3 10.00 Mostly Cloudy BKN080 62.8 61.5 96% 29.93 0.0
02 04:15 W 6 10.00 Mostly Cloudy BKN090 62.6 61 94% 29.93 0.0
02 03:55 W 5 10.00 Partly Cloudy SCT080 SCT110 62.6 61 94% 29.93 0.0
02 03:35 W 3 10.00 Light Rain SCT090 BKN110 63 61.7 96% 29.93 0.0
02 03:15 Calm 10.00 Mostly Cloudy SCT090 BKN110 62.6 61.9 98% 29.94 0.0
02 02:55 NW 6 10.00 Partly Cloudy SCT090 62.1 61.2 97% 29.93 0.0
02 02:35 NW 3 10.00 Partly Cloudy SCT090 61.9 60.6 96% 29.93 0.0
02 02:15 W 6 3.00 Fog/Mist CLR 62.6 61.3 96% 29.93 0.0
02 01:55 Calm 7.00 Fair CLR 63.9 62.8 96% 29.9 0.0
02 01:35 Calm 10.00 Fair CLR 64.4 63.1 96% 29.91 0.0
02 01:15 Calm 10.00 Fair CLR 65.3 63.9 95% 29.92 0.0
02 00:55 Calm 10.00 Partly Cloudy SCT040 65.8 64.4 73.8 65.8 95% 29.92 0.0 0.01
02 00:35 W 3 10.00 Partly Cloudy SCT040 66.6 65.3 96% 29.92 0.0
02 00:15 Calm 10.00 Mostly Cloudy SCT040 BKN120 66.6 65.3 96% 29.92 0.0
01 23:55 W 3 10.00 Fair CLR 67.1 65.7 95% 29.93 0.0
01 23:35 Calm 10.00 Partly Cloudy SCT120 67.1 65.7 95% 29.92 0.0
01 23:15 Calm 7.00 Fair CLR 67.1 65.7 95% 29.93 0.0
01 22:55 Calm 10.00 Fair CLR 68 66.2 94% 29.94 0.0
01 22:35 Calm 10.00 Light Rain SCT110 68 66.2 94% 29.95 0.0
01 22:15 NW 3 10.00 Light Rain BKN110 68.4 66.6 94% 29.95 0.0
01 21:55 Calm 10.00 Light Rain SCT100 SCT120 68.5 66.7 94% 29.95 0.0 0.01 0.01
01 21:35 W 3 10.00 Thunderstorm Light Rain in Vicinity SCT110 69.1 67.1 93% 29.96 0.0 0.01
01 21:15 Calm 10.00 Light Rain CLR 68.9 66.7 93% 29.94 0.0
01 20:55 Calm 10.00 Light Rain CLR 69.4 67.1 92% 29.94 0.0
01 20:35 N 3 10.00 Light Drizzle SCT060 SCT090 69.4 67.1 92% 29.92 0.0
01 20:15 Calm 10.00 Light Rain SCT060 BKN090 BKN110 70.3 67.5 91% 29.95 0.0
01 19:55 SW 5 10.00 Light Rain SCT095 SCT110 70.7 67.6 90% 29.95 0.0
01 19:35 Calm 10.00 Light Drizzle SCT060 SCT070 SCT100 71.2 67.8 89% 29.94 0.0
01 19:15 Calm 10.00 Light Rain SCT045 SCT060 BKN100 72.7 66.9 82% 29.94 0.0
01 18:55 Calm 10.00 Light Rain SCT049 SCT060 BKN120 74.5 66.4 79.7 74.5 76% 29.95 0.0
01 18:35 Calm 10.00 Mostly Cloudy BKN120 74.7 65.3 73% 29.96 0.0
01 18:15 Calm 10.00 Partly Cloudy SCT120 75.2 65.8 73% 77 29.95 0.0
01 17:55 Calm 10.00 Partly Cloudy SCT120 75.2 66.2 74% 77 29.95 0.0
01 17:35 N 5 10.00 Partly Cloudy SCT120 76.1 63.1 64% 78 29.95 0.0
01 17:15 Calm 10.00 Partly Cloudy SCT044 SCT049 77.9 62.2 59% 80 29.98 0.0
01 16:55 Calm 5.00 Light Rain SCT038 SCT046 BKN060 76.3 65.5 69% 78 29.97 0.0
01 16:35 Calm 10.00 Mostly Cloudy SCT090 BKN120 77.5 61 57% 79 29.98 0.0
01 16:15 Calm 10.00 Partly Cloudy SCT110 78.4 59.4 52% 80 29.99 0.0
01 15:55 Calm 10.00 Fair CLR 78.3 60.4 54% 80 29.97 0.0
01 15:35 Calm 10.00 Fair CLR 78.3 59.5 53% 80 29.97 0.0
01 15:15 E 5 10.00 Fair CLR 78.3 60.8 55% 80 29.96 0.0
01 14:55 Calm 10.00 Fair CLR 79 57.9 49% 80 29.98 0.0
01 14:35 Calm 10.00 Partly Cloudy SCT060 79.3 58.3 49% 80 29.98 0.0
01 14:15 NE 3 10.00 Partly Cloudy SCT060 79 58.5 50% 80 29.98 0.0
01 13:55 Calm 10.00 Fair CLR 78.3 58.6 51% 79 29.98 0.0
01 13:35 E 3 10.00 Partly Cloudy SCT065 77.5 59.5 54% 79 29.97 0.0
01 13:15 NE 3 10.00 Partly Cloudy SCT065 77.5 57.6 50% 79 29.98 0.0
01 12:55 E 5 10.00 Fair CLR 78.8 57 78.8 56.8 47% 80 29.99 0.0
01 12:35 N 5 10.00 Fair CLR 78.4 56.7 47% 79 29.98 0.0
01 12:15 NE 3 10.00 Fair CLR 78.1 54.7 45% 79 29.99 0.0
01 11:55 Calm 10.00 Fair CLR 77 54.7 46% 78 30 0.0
01 11:35 Calm 10.00 Fair CLR 74.8 58.1 56% 30.01 0.0
01 11:15 Calm 10.00 Fair CLR 75.2 57.6 54% 78 30.01 0.0
01 10:55 Calm 10.00 Fair CLR 72.9 57.6 59% 30.02 0.0
01 10:35 Calm 10.00 Fair CLR 72.9 57 58% 30.01 0.0
01 10:15 NW 3 10.00 Fair CLR 72.1 57.9 61% 30.01 0.0
01 09:35 NW 6 10.00 Fair CLR 70.2 57 63% 30.01 0.0
01 09:15 NW 3 10.00 Fair CLR 68.5 60.1 75% 30.01 0.0
01 08:55 Calm 10.00 Fair CLR 66.2 61.2 84% 30.01 0.0
01 08:35 Calm 10.00 Fair CLR 65.3 60.3 84% 30.02 0.0
01 08:15 Calm 10.00 Fair CLR 64.2 60.3 87% 30.01 0.0
01 07:55 Calm 10.00 Fair CLR 61 58.8 93% 30.01 0.0
01 07:35 Calm 10.00 Fair CLR 57.4 55 92% 30 0.0
01 07:15 Calm 10.00 Fair CLR 58.1 55.8 92% 29.99 0.0
01 06:55 Calm 10.00 Fair CLR 56.5 54.1 64 56.3 92% 29.98 0.0
01 06:35 Calm 10.00 Fair CLR 56.5 54.1 92% 29.98 0.0
01 06:15 Calm 10.00 Fair CLR 57.2 55.2 93% 29.97 0.0
01 05:55 Calm 10.00 Fair CLR 57.2 54.9 92% 29.97 0.0
01 05:35 Calm 10.00 Fair CLR 57.2 55 93% 29.97 0.0
01 05:15 Calm 10.00 Fair CLR 57.6 54.5 90% 29.97 0.0
01 04:55 Calm 10.00 Fair CLR 59.4 56.3 90% 29.97 0.0
01 04:35 SE 3 10.00 Fair CLR 59.7 56.3 89% 29.95 0.0
01 04:15 W 7 10.00 Fair CLR 60.3 56.3 87% 29.95 0.0
01 03:55 W 3 10.00 Fair CLR 62.8 57.2 82% 29.95 0.0
01 03:35 W 8 10.00 Fair CLR 63.1 58.8 86% 29.94 0.0
01 03:15 W 7 10.00 Fair CLR 61.9 59 90% 29.95 0.0
01 02:55 W 6 10.00 Fair CLR 61.7 58.3 89% 29.95 0.0
01 02:35 SW 3 10.00 Fair CLR 63 59.9 90% 29.95 0.0
01 02:15 Calm 10.00 Fair CLR 62.2 59.2 90% 29.95 0.0
01 01:55 S 3 10.00 Fair CLR 62.6 59.2 89% 29.97 0.0
01 01:35 Calm 10.00 Fair CLR 63.9 59.7 86% 29.97 0.0
01 01:15 Calm 10.00 Fair CLR 63.9 59.7 86% 29.97 0.0
01 00:55 W 6 10.00 Fair CLR 63.7 59.9 78.8 63.5 88% 29.98 0.0
01 00:35 W 6 10.00 Fair CLR 64.4 60.1 86% 29.98 0.0
01 00:15 W 3 10.00 Fair CLR 64.6 60.3 86% 29.98 0.0
31 23:55 SW 5 10.00 Fair CLR 64.9 61.2 88% 29.97 0.0
31 23:35 Calm 10.00 Fair CLR 64.9 61.5 89% 29.97 0.0
31 23:15 Calm 10.00 Fair CLR 66 61.5 86% 29.96 0.0
Date Time (cdt) Wind (mph) Vis. (mi.) Weather Sky Cond. Air Dwpt Max. Min. Relative Humidity Wind Chill (°F) Heat Index (°F) altimeter (in) sea level (mb) 1 hr 3 hr 6 hr
6 hour
Temperature (ºF) Pressure Precipitation (in)